createdAt,value
2023-05-03T00:02:06.451Z,8.70
2023-05-03T00:04:36.241Z,9.83
2023-05-03T00:07:05.637Z,8.10
2023-05-03T00:09:35.795Z,9.55
2023-05-03T00:12:06.665Z,9.52
2023-05-03T00:14:35.722Z,9.20
2023-05-03T00:17:06.823Z,8.82
2023-05-03T00:19:37.782Z,9.10
2023-05-03T00:22:07.398Z,8.27
2023-05-03T00:24:36.873Z,8.70
2023-05-03T00:27:06.820Z,8.52
2023-05-03T00:29:36.236Z,9.25
2023-05-03T00:32:07.743Z,8.50
2023-05-03T00:34:36.763Z,6.88
2023-05-03T00:37:06.071Z,8.38
2023-05-03T00:39:35.375Z,9.73
2023-05-03T00:42:05.354Z,9.35
2023-05-03T00:44:34.715Z,9.35
2023-05-03T00:47:04.747Z,8.57
2023-05-03T00:49:35.293Z,8.63
2023-05-03T00:52:04.803Z,7.13
2023-05-03T00:54:35.294Z,9.18
2023-05-03T00:57:06.938Z,8.70
2023-05-03T00:59:36.262Z,9.35
2023-05-03T01:02:05.837Z,10.70
2023-05-03T01:04:37.079Z,11.20
2023-05-03T01:07:11.276Z,9.50
2023-05-03T01:09:43.833Z,8.32
2023-05-03T01:12:31.036Z,10.77
2023-05-03T01:15:04.707Z,9.48
2023-05-03T01:17:36.854Z,10.25
2023-05-03T01:20:11.087Z,11.48
2023-05-03T01:22:44.862Z,12.80
2023-05-03T01:25:16.575Z,13.07
2023-05-03T01:27:45.780Z,13.98
2023-05-03T01:30:15.079Z,15.40
2023-05-03T01:32:48.958Z,15.93
2023-05-03T01:35:22.804Z,13.63
2023-05-03T01:37:52.681Z,15.02
2023-05-03T01:40:24.694Z,14.10
2023-05-03T01:42:54.201Z,13.45
2023-05-03T01:45:23.738Z,14.68
2023-05-03T01:47:52.918Z,14.55
2023-05-03T01:50:24.110Z,14.88
2023-05-03T01:52:53.495Z,13.90
2023-05-03T01:55:23.813Z,11.85
2023-05-03T01:57:52.840Z,13.05
2023-05-03T02:00:21.995Z,11.88
2023-05-03T02:02:51.074Z,11.55
2023-05-03T02:05:20.660Z,11.18
2023-05-03T02:07:49.747Z,11.77
2023-05-03T02:10:18.898Z,12.85
2023-05-03T02:12:49.611Z,11.18
2023-05-03T02:15:20.133Z,11.32
2023-05-03T02:17:49.806Z,10.68
2023-05-03T02:20:19.333Z,10.77
2023-05-03T02:22:48.473Z,10.00
2023-05-03T02:25:17.527Z,11.40
2023-05-03T02:27:48.935Z,9.80
2023-05-03T02:30:18.156Z,10.93
2023-05-03T02:32:47.275Z,9.75
2023-05-03T02:35:18.068Z,9.70
2023-05-03T02:37:48.058Z,10.13
2023-05-03T02:40:17.871Z,10.82
2023-05-03T02:42:50.150Z,11.03
2023-05-03T02:45:25.959Z,9.45
2023-05-03T02:47:54.861Z,9.20
2023-05-03T02:50:25.811Z,9.77
2023-05-03T02:52:55.308Z,10.82
2023-05-03T02:55:24.296Z,9.68
2023-05-03T02:57:54.708Z,9.73
2023-05-03T03:00:23.823Z,9.07
2023-05-03T03:02:52.772Z,9.38
2023-05-03T03:05:22.997Z,9.10
2023-05-03T03:07:53.496Z,9.35
2023-05-03T03:10:22.783Z,9.70
2023-05-03T03:12:51.906Z,10.02
2023-05-03T03:15:32.223Z,8.95
2023-05-03T03:18:01.231Z,8.88
2023-05-03T03:20:30.771Z,9.98
2023-05-03T03:23:00.051Z,9.55
2023-05-03T03:25:29.167Z,10.38
2023-05-03T03:28:00.799Z,10.32
2023-05-03T03:30:32.227Z,10.60
2023-05-03T03:33:11.416Z,8.65
2023-05-03T03:35:43.162Z,10.13
2023-05-03T03:38:14.225Z,9.30
2023-05-03T03:40:52.768Z,9.38
2023-05-03T03:43:22.322Z,10.05
2023-05-03T03:45:54.145Z,11.30
2023-05-03T03:48:23.663Z,9.55
2023-05-03T03:50:53.431Z,9.30
2023-05-03T03:53:27.520Z,7.82
2023-05-03T03:55:56.829Z,8.25
2023-05-03T03:58:27.065Z,9.07
2023-05-03T04:01:00.788Z,9.48
2023-05-03T04:03:31.775Z,11.48
2023-05-03T04:06:01.821Z,9.15
2023-05-03T04:08:31.650Z,9.70
2023-05-03T04:11:01.320Z,9.10
2023-05-03T04:13:32.113Z,8.65
2023-05-03T04:16:04.797Z,8.65
2023-05-03T04:18:34.550Z,12.05
2023-05-03T04:21:05.903Z,10.00
2023-05-03T04:23:35.080Z,9.55
2023-05-03T04:26:07.512Z,10.43
2023-05-03T04:31:09.987Z,8.98
2023-05-03T04:33:39.108Z,10.27
2023-05-03T04:36:16.096Z,9.75
2023-05-03T04:38:48.428Z,9.73
2023-05-03T04:41:17.867Z,10.43
2023-05-03T04:43:49.518Z,7.32
2023-05-03T04:46:20.513Z,8.65
2023-05-03T04:48:51.254Z,9.55
2023-05-03T04:51:20.416Z,9.02
2023-05-03T04:53:49.978Z,8.52
2023-05-03T04:56:26.558Z,8.73
2023-05-03T04:59:05.381Z,7.55
2023-05-03T05:01:36.802Z,10.27
2023-05-03T05:04:07.664Z,8.57
2023-05-03T05:06:43.340Z,9.23
2023-05-03T05:09:24.289Z,8.68
2023-05-03T05:11:57.406Z,9.73
2023-05-03T05:14:29.407Z,9.38
2023-05-03T05:17:01.150Z,8.52
2023-05-03T05:19:30.514Z,8.40
2023-05-03T05:21:59.589Z,8.52
2023-05-03T05:24:39.115Z,10.25
2023-05-03T05:27:08.531Z,8.70
2023-05-03T05:29:37.794Z,9.02
2023-05-03T05:32:08.942Z,9.57
2023-05-03T05:34:45.165Z,11.00
2023-05-03T05:37:16.019Z,10.88
2023-05-03T05:39:45.979Z,10.07
2023-05-03T05:42:16.400Z,12.00
2023-05-03T05:44:47.540Z,10.82
2023-05-03T05:47:20.004Z,10.10
2023-05-03T05:49:50.395Z,10.63
2023-05-03T05:52:19.555Z,11.10
2023-05-03T05:54:48.532Z,12.60
2023-05-03T05:57:18.492Z,10.60
2023-05-03T05:59:47.756Z,10.85
2023-05-03T06:02:18.834Z,11.10
2023-05-03T06:04:49.578Z,10.07
2023-05-03T06:07:19.119Z,10.80
2023-05-03T06:09:49.006Z,9.20
2023-05-03T06:12:18.262Z,9.65
2023-05-03T06:15:01.406Z,7.97
2023-05-03T06:17:37.643Z,9.55
2023-05-03T06:20:11.714Z,9.50
2023-05-03T06:22:41.850Z,8.25
2023-05-03T06:25:15.487Z,9.00
2023-05-03T06:27:48.464Z,9.90
2023-05-03T06:30:20.824Z,9.02
2023-05-03T06:32:55.501Z,9.15
2023-05-03T06:35:24.632Z,8.32
2023-05-03T06:37:53.751Z,9.30
2023-05-03T06:40:24.852Z,10.82
2023-05-03T06:42:54.078Z,8.73
2023-05-03T06:45:45.906Z,10.23
2023-05-03T06:48:16.481Z,9.15
2023-05-03T06:50:46.477Z,10.52
2023-05-03T06:53:15.576Z,9.48
2023-05-03T06:55:46.082Z,7.90
2023-05-03T06:58:16.833Z,8.95
2023-05-03T07:00:46.713Z,9.10
2023-05-03T07:03:17.114Z,8.02
2023-05-03T07:05:46.558Z,7.65
2023-05-03T07:08:15.544Z,7.28
2023-05-03T07:10:44.490Z,7.68
2023-05-03T07:13:14.332Z,7.20
2023-05-03T07:15:44.128Z,7.43
2023-05-03T07:18:13.203Z,7.82
2023-05-03T07:20:43.536Z,8.30
2023-05-03T07:23:12.690Z,7.32
2023-05-03T07:25:41.870Z,8.00
2023-05-03T07:28:11.162Z,8.48
2023-05-03T07:30:41.262Z,6.45
2023-05-03T07:33:10.478Z,8.43
2023-05-03T07:35:39.971Z,9.07
2023-05-03T07:38:10.437Z,8.55
2023-05-03T07:40:39.957Z,8.63
2023-05-03T07:43:10.141Z,9.13
2023-05-03T07:45:39.470Z,9.07
2023-05-03T07:48:09.002Z,10.70
2023-05-03T07:50:38.319Z,9.00
2023-05-03T07:53:07.336Z,11.45
2023-05-03T07:55:38.142Z,9.60
2023-05-03T07:58:07.197Z,10.30
2023-05-03T08:00:36.409Z,10.27
2023-05-03T08:03:06.600Z,9.35
2023-05-03T08:05:36.768Z,10.57
2023-05-03T08:08:07.094Z,10.75
2023-05-03T08:10:38.732Z,9.98
2023-05-03T08:13:08.083Z,10.35
2023-05-03T08:15:37.263Z,9.73
2023-05-03T08:18:06.452Z,11.07
2023-05-03T08:20:36.897Z,10.10
2023-05-03T08:23:05.864Z,11.32
2023-05-03T08:25:36.980Z,15.57
2023-05-03T08:28:08.414Z,11.73
2023-05-03T08:30:37.505Z,10.35
2023-05-03T08:33:06.808Z,10.10
2023-05-03T08:35:36.529Z,11.75
2023-05-03T08:38:05.588Z,10.90
2023-05-03T08:40:37.541Z,11.15
2023-05-03T08:45:37.162Z,9.13
2023-05-03T08:48:08.286Z,10.15
2023-05-03T08:50:42.212Z,10.75
2023-05-03T08:53:11.938Z,9.27
2023-05-03T08:55:46.084Z,9.63
2023-05-03T08:58:15.239Z,8.43
2023-05-03T09:00:46.807Z,8.63
2023-05-03T09:03:16.679Z,13.02
2023-05-03T09:05:46.708Z,8.20
2023-05-03T09:08:17.167Z,7.88
2023-05-03T09:10:46.147Z,7.82
2023-05-03T09:13:15.092Z,8.30
2023-05-03T09:15:46.858Z,8.55
2023-05-03T09:18:18.171Z,9.68
2023-05-03T09:20:52.857Z,8.55
2023-05-03T09:23:31.509Z,7.63
2023-05-03T09:26:01.174Z,8.20
2023-05-03T09:28:30.529Z,9.05
2023-05-03T09:31:07.375Z,8.50
2023-05-03T09:33:38.173Z,8.13
2023-05-03T09:36:07.645Z,8.63
2023-05-03T09:38:37.693Z,8.68
2023-05-03T09:41:07.289Z,9.82
2023-05-03T09:43:36.571Z,8.98
2023-05-03T09:46:12.287Z,8.18
2023-05-03T09:48:43.511Z,7.07
2023-05-03T09:51:13.900Z,7.37
2023-05-03T09:53:43.166Z,7.50
2023-05-03T09:56:13.664Z,8.30
2023-05-03T09:58:43.839Z,8.70
2023-05-03T10:01:13.548Z,8.57
2023-05-03T10:03:45.357Z,8.68
2023-05-03T10:06:21.767Z,8.68
2023-05-03T10:08:52.781Z,8.50
2023-05-03T10:11:25.825Z,8.38
2023-05-03T10:13:55.865Z,7.50
2023-05-03T10:16:28.586Z,8.10
2023-05-03T10:19:03.183Z,6.63
2023-05-03T10:21:37.208Z,9.25
2023-05-03T10:24:13.807Z,6.70
2023-05-03T10:26:43.369Z,8.07
2023-05-03T10:29:33.330Z,8.35
2023-05-03T10:32:02.750Z,8.20
2023-05-03T10:34:34.243Z,9.43
2023-05-03T10:37:04.155Z,6.22
2023-05-03T10:39:33.248Z,7.72
2023-05-03T10:42:04.157Z,8.52
2023-05-03T10:44:37.202Z,8.07
2023-05-03T10:47:14.623Z,8.38
2023-05-03T10:49:45.283Z,7.72
2023-05-03T10:52:33.272Z,7.93
2023-05-03T10:55:02.451Z,6.95
2023-05-03T10:57:33.385Z,7.53
2023-05-03T11:00:07.168Z,8.00
2023-05-03T11:02:40.282Z,10.25
2023-05-03T11:05:12.787Z,7.18
2023-05-03T11:07:42.483Z,8.07
2023-05-03T11:10:18.434Z,9.13
2023-05-03T11:12:47.710Z,7.55
2023-05-03T11:15:17.404Z,8.32
2023-05-03T11:17:46.592Z,8.13
2023-05-03T11:20:17.071Z,8.00
2023-05-03T11:22:49.537Z,9.20
2023-05-03T11:25:18.664Z,8.13
2023-05-03T11:27:48.233Z,7.63
2023-05-03T11:30:18.219Z,9.60
2023-05-03T11:32:47.550Z,9.20
2023-05-03T11:35:18.361Z,9.25
2023-05-03T11:37:47.540Z,10.38
2023-05-03T11:40:18.244Z,7.68
2023-05-03T11:42:54.973Z,8.18
2023-05-03T11:45:24.966Z,8.68
2023-05-03T11:47:54.810Z,8.43
2023-05-03T11:50:45.755Z,8.60
2023-05-03T11:53:15.134Z,8.50
2023-05-03T11:55:46.301Z,8.60
2023-05-03T11:58:16.001Z,8.37
2023-05-03T12:00:46.594Z,10.27
2023-05-03T12:03:19.876Z,8.23
2023-05-03T12:05:53.194Z,9.20
2023-05-03T12:10:55.298Z,8.55
2023-05-03T12:13:33.869Z,10.50
2023-05-03T12:18:55.896Z,9.52
2023-05-03T12:21:31.816Z,9.57
2023-05-03T12:24:03.854Z,9.23
2023-05-03T12:26:37.095Z,9.77
2023-05-03T12:29:07.092Z,10.05
2023-05-03T12:31:39.148Z,9.68
2023-05-03T12:36:53.845Z,11.75
2023-05-03T12:39:27.180Z,11.13
2023-05-03T12:42:06.842Z,11.95
2023-05-03T12:44:38.114Z,11.30
2023-05-03T12:47:11.038Z,11.05
2023-05-03T12:49:44.101Z,10.20
2023-05-03T12:54:49.370Z,10.57
2023-05-03T12:57:23.341Z,7.97
2023-05-03T13:00:01.939Z,9.70
2023-05-03T13:05:12.060Z,10.00
2023-05-03T13:07:56.127Z,11.45
2023-05-03T13:10:27.145Z,8.95
2023-05-03T13:12:57.033Z,10.27
2023-05-03T13:15:27.315Z,10.02
2023-05-03T13:17:57.118Z,11.00
2023-05-03T13:20:26.228Z,9.63
2023-05-03T13:22:56.717Z,11.48
2023-05-03T13:25:25.814Z,9.90
2023-05-03T13:27:54.940Z,11.07
2023-05-03T13:30:24.397Z,11.75
2023-05-03T13:32:53.583Z,11.15
2023-05-03T13:35:23.196Z,11.75
2023-05-03T13:37:52.382Z,11.50
2023-05-03T13:40:25.032Z,11.07
2023-05-03T13:42:54.142Z,10.48
2023-05-03T13:45:23.563Z,9.93
2023-05-03T13:48:14.317Z,10.65
2023-05-03T13:50:42.366Z,10.98
2023-05-03T13:53:11.764Z,10.13
2023-05-03T13:55:44.719Z,10.07
2023-05-03T13:58:13.764Z,9.38
2023-05-03T14:00:43.120Z,10.48
2023-05-03T14:03:12.252Z,9.45
2023-05-03T14:05:41.603Z,9.75
2023-05-03T14:08:10.819Z,10.85
2023-05-03T14:10:40.748Z,9.43
2023-05-03T14:13:11.374Z,8.77
2023-05-03T14:15:40.956Z,10.07
2023-05-03T14:18:10.709Z,10.45
2023-05-03T14:20:39.733Z,9.77
2023-05-03T14:23:08.823Z,11.50
2023-05-03T14:25:37.852Z,9.65
2023-05-03T14:28:06.868Z,8.85
2023-05-03T14:30:37.627Z,9.05
2023-05-03T14:33:07.690Z,9.98
2023-05-03T14:35:36.836Z,9.38
2023-05-03T14:38:06.667Z,9.02
2023-05-03T14:40:35.897Z,9.20
2023-05-03T14:43:05.081Z,8.80
2023-05-03T14:45:34.158Z,8.40
2023-05-03T14:48:04.713Z,8.50
2023-05-03T14:50:34.239Z,7.30
2023-05-03T14:53:03.650Z,7.95
2023-05-03T14:55:33.417Z,6.90
2023-05-03T14:58:02.346Z,9.52
2023-05-03T15:00:31.814Z,11.90
2023-05-03T15:03:00.914Z,9.68
2023-05-03T15:05:31.926Z,9.10
2023-05-03T15:08:01.232Z,7.57
2023-05-03T15:10:30.327Z,8.68
2023-05-03T15:13:00.273Z,8.18
2023-05-03T15:15:30.170Z,9.60
2023-05-03T15:17:59.318Z,8.80
2023-05-03T15:20:28.765Z,8.45
2023-05-03T15:22:59.289Z,9.73
2023-05-03T15:25:28.485Z,8.40
2023-05-03T15:28:00.612Z,9.18
2023-05-03T15:30:32.185Z,9.23
2023-05-03T15:33:02.098Z,6.43
2023-05-03T15:35:31.487Z,8.35
2023-05-03T15:38:01.938Z,10.13
2023-05-03T15:40:31.370Z,9.10
2023-05-03T15:43:00.695Z,8.35
2023-05-03T15:45:29.616Z,8.88
2023-05-03T15:47:58.529Z,8.45
2023-05-03T15:50:27.837Z,8.00
2023-05-03T15:52:57.072Z,9.38
2023-05-03T15:55:29.673Z,9.45
2023-05-03T15:57:58.662Z,9.63
2023-05-03T16:00:27.731Z,9.20
2023-05-03T16:02:57.376Z,8.05
2023-05-03T16:05:26.991Z,8.75
2023-05-03T16:07:56.271Z,7.00
2023-05-03T16:10:26.984Z,9.73
2023-05-03T16:12:56.535Z,10.18
2023-05-03T16:15:25.700Z,8.90
2023-05-03T16:17:55.337Z,8.43
2023-05-03T16:20:24.531Z,8.40
2023-05-03T16:22:54.643Z,9.45
2023-05-03T16:25:23.893Z,9.45
2023-05-03T16:27:54.392Z,9.57
2023-05-03T16:30:23.707Z,9.05
2023-05-03T16:32:53.568Z,9.10
2023-05-03T16:35:22.970Z,9.57
2023-05-03T16:37:52.960Z,11.07
2023-05-03T16:40:21.961Z,9.40
2023-05-03T16:42:55.824Z,8.00
2023-05-03T16:45:25.029Z,9.00
2023-05-03T16:47:54.276Z,9.20
2023-05-03T16:50:23.700Z,8.27
2023-05-03T16:52:53.096Z,10.80
2023-05-03T16:55:23.410Z,8.82
2023-05-03T16:57:53.775Z,10.35
2023-05-03T17:00:22.763Z,10.57
2023-05-03T17:02:51.851Z,9.98
2023-05-03T17:05:20.853Z,9.98
2023-05-03T17:07:49.931Z,9.25
2023-05-03T17:10:19.553Z,10.80
2023-05-03T17:12:48.832Z,8.82
2023-05-03T17:15:19.833Z,9.38
2023-05-03T17:17:49.509Z,11.20
2023-05-03T17:20:18.677Z,10.73
2023-05-03T17:22:48.107Z,11.25
2023-05-03T17:25:17.246Z,11.70
2023-05-03T17:27:46.326Z,8.48
2023-05-03T17:30:18.325Z,11.88
2023-05-03T17:32:50.537Z,10.57
2023-05-03T17:35:20.316Z,8.85
2023-05-03T17:37:49.621Z,9.38
2023-05-03T17:40:18.606Z,8.35
2023-05-03T17:42:47.895Z,8.75
2023-05-03T17:45:16.890Z,9.48
2023-05-03T17:47:46.069Z,9.63
2023-05-03T17:50:17.058Z,9.07
2023-05-03T17:52:46.133Z,9.10
2023-05-03T17:55:18.094Z,9.55
2023-05-03T17:57:47.420Z,9.32
2023-05-03T18:00:17.487Z,10.02
2023-05-03T18:02:46.635Z,9.65
2023-05-03T18:05:17.293Z,8.90
2023-05-03T18:07:46.367Z,8.93
2023-05-03T18:10:17.483Z,7.68
2023-05-03T18:12:46.463Z,10.93
2023-05-03T18:15:15.905Z,8.52
2023-05-03T18:17:45.350Z,8.77
2023-05-03T18:20:16.014Z,8.63
2023-05-03T18:22:46.468Z,9.52
2023-05-03T18:25:17.002Z,8.73
2023-05-03T18:27:46.084Z,9.40
2023-05-03T18:30:15.327Z,7.78
2023-05-03T18:32:44.543Z,7.47
2023-05-03T18:35:13.622Z,7.15
2023-05-03T18:37:42.783Z,7.13
2023-05-03T18:40:14.350Z,7.38
2023-05-03T18:42:43.434Z,8.90
2023-05-03T18:45:15.017Z,7.28
2023-05-03T18:47:44.049Z,7.40
2023-05-03T18:50:13.117Z,8.25
2023-05-03T18:52:42.340Z,8.52
2023-05-03T18:55:11.469Z,7.03
2023-05-03T18:57:41.901Z,8.80
2023-05-03T19:00:13.591Z,9.48
2023-05-03T19:02:43.060Z,10.82
2023-05-03T19:05:14.103Z,9.30
2023-05-03T19:07:44.221Z,10.27
2023-05-03T19:10:13.503Z,8.70
2023-05-03T19:12:45.243Z,8.68
2023-05-03T19:15:14.460Z,9.70
2023-05-03T19:17:44.608Z,7.40
2023-05-03T19:20:14.105Z,8.23
2023-05-03T19:22:43.163Z,9.02
2023-05-03T19:25:13.181Z,8.20
2023-05-03T19:27:43.768Z,10.20
2023-05-03T19:30:13.328Z,11.05
2023-05-03T19:32:42.728Z,11.63
2023-05-03T19:35:11.862Z,9.75
2023-05-03T19:37:42.710Z,9.65
2023-05-03T19:40:12.453Z,10.05
2023-05-03T19:42:41.922Z,9.40
2023-05-03T19:45:16.137Z,8.15
2023-05-03T19:47:45.322Z,8.90
2023-05-03T19:50:14.259Z,10.05
2023-05-03T19:52:43.224Z,10.85
2023-05-03T19:55:12.313Z,9.55
2023-05-03T19:57:41.689Z,10.30
2023-05-03T20:00:15.183Z,10.48
2023-05-03T20:02:44.449Z,9.73
2023-05-03T20:05:13.947Z,8.40
2023-05-03T20:07:44.248Z,9.25
2023-05-03T20:10:13.664Z,10.02
2023-05-03T20:12:42.845Z,9.75
2023-05-03T20:15:13.714Z,10.25
2023-05-03T20:17:43.136Z,9.25
2023-05-03T20:20:13.243Z,10.75
2023-05-03T20:22:42.351Z,10.65
2023-05-03T20:25:11.609Z,9.98
2023-05-03T20:27:40.850Z,9.80
2023-05-03T20:30:10.569Z,11.57
2023-05-03T20:32:41.297Z,11.23
2023-05-03T20:35:12.111Z,10.68
2023-05-03T20:37:41.938Z,15.18
2023-05-03T20:40:12.748Z,12.57
2023-05-03T20:42:41.932Z,9.93
2023-05-03T20:45:12.584Z,12.35
2023-05-03T20:47:43.233Z,9.65
2023-05-03T20:50:12.979Z,11.15
2023-05-03T20:52:43.252Z,11.93
2023-05-03T20:55:12.224Z,11.48
2023-05-03T20:57:42.129Z,12.65
2023-05-03T21:00:12.720Z,11.98
2023-05-03T21:02:43.531Z,11.65
2023-05-03T21:05:12.637Z,11.32
2023-05-03T21:07:42.049Z,9.50
2023-05-03T21:10:11.669Z,10.63
2023-05-03T21:12:41.041Z,10.73
2023-05-03T21:15:10.764Z,11.27
2023-05-03T21:17:39.906Z,12.30
2023-05-03T21:20:11.596Z,10.45
2023-05-03T21:22:41.045Z,12.13
2023-05-03T21:25:10.599Z,10.18
2023-05-03T21:27:40.034Z,10.85
2023-05-03T21:30:10.376Z,10.70
2023-05-03T21:32:40.363Z,10.23
2023-05-03T21:35:12.108Z,11.30
2023-05-03T21:37:41.154Z,11.02
2023-05-03T21:40:10.872Z,10.05
2023-05-03T21:42:40.472Z,11.65
2023-05-03T21:45:10.153Z,11.95
2023-05-03T21:47:39.596Z,11.18
2023-05-03T21:50:09.180Z,12.48
2023-05-03T21:52:40.272Z,11.70
2023-05-03T21:55:09.839Z,12.23
2023-05-03T21:57:38.914Z,12.02
2023-05-03T22:00:09.631Z,9.82
2023-05-03T22:02:38.726Z,12.02
2023-05-03T22:05:08.287Z,12.27
2023-05-03T22:07:37.570Z,12.43
2023-05-03T22:10:08.935Z,11.68
2023-05-03T22:12:38.199Z,12.15
2023-05-03T22:15:08.412Z,10.80
2023-05-03T22:17:37.591Z,12.35
2023-05-03T22:20:08.161Z,11.50
2023-05-03T22:22:37.609Z,11.63
2023-05-03T22:25:08.363Z,10.68
2023-05-03T22:27:38.430Z,11.27
2023-05-03T22:30:09.159Z,10.52
2023-05-03T22:32:38.862Z,12.60
2023-05-03T22:35:09.443Z,12.88
2023-05-03T22:37:38.669Z,13.30
2023-05-03T22:40:10.334Z,12.55
2023-05-03T22:42:39.480Z,12.50
2023-05-03T22:45:09.312Z,14.02
2023-05-03T22:47:38.517Z,12.02
2023-05-03T22:50:08.699Z,18.20
2023-05-03T22:52:37.782Z,14.30
2023-05-03T22:55:07.967Z,13.30
2023-05-03T22:57:38.537Z,13.60
2023-05-03T23:00:09.321Z,13.95
2023-05-03T23:02:38.695Z,14.50
2023-05-03T23:05:08.253Z,14.32
2023-05-03T23:07:37.241Z,13.40
2023-05-03T23:10:07.431Z,11.85
2023-05-03T23:12:38.239Z,13.95
2023-05-03T23:15:08.729Z,15.10
2023-05-03T23:17:37.938Z,10.77
2023-05-03T23:20:07.588Z,14.95
2023-05-03T23:22:39.328Z,14.93
2023-05-03T23:25:09.146Z,14.52
2023-05-03T23:27:39.641Z,13.38
2023-05-03T23:30:10.086Z,15.82
2023-05-03T23:32:41.451Z,13.48
2023-05-03T23:35:11.209Z,14.07
2023-05-03T23:37:40.886Z,13.73
2023-05-03T23:40:10.750Z,15.60
2023-05-03T23:42:41.424Z,13.98
2023-05-03T23:45:10.699Z,15.98
2023-05-03T23:47:39.716Z,17.08
2023-05-03T23:50:10.370Z,15.43
2023-05-03T23:52:39.284Z,17.30
2023-05-03T23:55:08.943Z,15.35
2023-05-03T23:57:37.931Z,15.90
